createdAt,value
2019-02-06T00:00:26.467Z,96.92
2019-02-06T00:02:53.241Z,94.85
2019-02-06T00:05:26.140Z,103.17
2019-02-06T00:08:00.114Z,105.85
2019-02-06T00:10:32.967Z,110.32
2019-02-06T00:13:06.466Z,104.83
2019-02-06T00:15:38.810Z,107.15
2019-02-06T00:18:11.691Z,104.67
2019-02-06T00:20:44.117Z,110.95
2019-02-06T00:23:17.372Z,115.42
2019-02-06T00:25:49.785Z,112.95
2019-02-06T00:28:22.572Z,107.12
2019-02-06T00:30:55.803Z,103.62
2019-02-06T00:33:28.491Z,109.72
2019-02-06T00:36:00.844Z,131.65
2019-02-06T00:38:34.209Z,117.57
2019-02-06T00:41:07.018Z,122.87
2019-02-06T00:43:39.752Z,123.25
2019-02-06T00:46:12.077Z,122.53
2019-02-06T00:48:44.559Z,122.47
2019-02-06T00:51:16.877Z,126.10
2019-02-06T00:53:49.937Z,119.13
2019-02-06T00:56:22.436Z,126.10
2019-02-06T00:58:55.320Z,137.03
2019-02-06T01:01:27.641Z,131.30
2019-02-06T01:04:00.040Z,112.60
2019-02-06T01:06:32.565Z,129.65
2019-02-06T01:09:06.206Z,121.47
2019-02-06T01:11:39.280Z,129.50
2019-02-06T01:14:12.537Z,134.47
2019-02-06T01:16:45.214Z,131.52
2019-02-06T01:19:17.827Z,117.33
2019-02-06T01:21:50.381Z,120.13
2019-02-06T01:24:23.154Z,119.62
2019-02-06T01:26:55.427Z,113.40
2019-02-06T01:29:28.168Z,114.17
2019-02-06T01:32:00.284Z,109.27
2019-02-06T01:34:34.041Z,104.03
2019-02-06T01:37:06.409Z,105.35
2019-02-06T01:39:39.024Z,105.72
2019-02-06T01:42:11.350Z,105.07
2019-02-06T01:44:44.134Z,110.05
2019-02-06T01:47:16.725Z,109.90
2019-02-06T01:49:49.150Z,108.15
2019-02-06T01:52:21.545Z,109.75
2019-02-06T01:54:54.118Z,113.40
2019-02-06T01:57:30.083Z,108.57
2019-02-06T02:00:02.405Z,112.85
2019-02-06T02:02:36.135Z,106.83
2019-02-06T02:05:10.161Z,106.90
2019-02-06T02:07:43.788Z,105.20
2019-02-06T02:10:16.580Z,104.67
2019-02-06T02:12:49.322Z,102.20
2019-02-06T02:15:22.700Z,105.60
2019-02-06T02:17:55.686Z,102.55
2019-02-06T02:20:28.258Z,100.72
2019-02-06T02:23:01.336Z,107.12
2019-02-06T02:25:34.601Z,106.52
2019-02-06T02:28:07.607Z,103.15
2019-02-06T02:30:42.670Z,112.85
2019-02-06T02:33:19.502Z,106.37
2019-02-06T02:35:59.603Z,105.80
2019-02-06T02:38:32.234Z,104.05
2019-02-06T02:41:05.148Z,109.00
2019-02-06T02:43:37.857Z,105.12
2019-02-06T02:46:11.118Z,109.80
2019-02-06T02:48:43.571Z,109.63
2019-02-06T02:51:16.263Z,110.35
2019-02-06T02:53:48.828Z,112.92
2019-02-06T02:56:21.741Z,107.58
2019-02-06T02:58:54.133Z,107.40
2019-02-06T03:01:28.209Z,108.80
2019-02-06T03:04:01.927Z,105.43
2019-02-06T03:06:34.691Z,108.40
2019-02-06T03:09:09.469Z,103.27
2019-02-06T03:11:42.499Z,104.80
2019-02-06T03:14:15.290Z,103.65
2019-02-06T03:16:47.984Z,103.42
2019-02-06T03:19:20.434Z,99.90
2019-02-06T03:21:53.039Z,102.90
2019-02-06T03:24:25.984Z,104.20
2019-02-06T03:26:58.699Z,100.40
2019-02-06T03:29:31.970Z,93.92
2019-02-06T03:32:05.929Z,98.03
2019-02-06T03:34:39.452Z,96.95
2019-02-06T03:37:11.949Z,94.83
2019-02-06T03:39:44.591Z,93.03
2019-02-06T03:42:17.078Z,91.22
2019-02-06T03:44:50.016Z,89.55
2019-02-06T03:47:22.709Z,89.35
2019-02-06T03:49:55.725Z,92.20
2019-02-06T03:52:28.304Z,92.27
2019-02-06T03:55:01.088Z,93.67
2019-02-06T03:57:33.879Z,87.42
2019-02-06T04:00:09.772Z,87.90
2019-02-06T04:02:42.342Z,87.72
2019-02-06T04:05:15.707Z,85.97
2019-02-06T04:07:48.108Z,81.90
2019-02-06T04:10:22.505Z,82.42
2019-02-06T04:12:55.104Z,84.20
2019-02-06T04:15:28.080Z,80.05
2019-02-06T04:18:00.867Z,82.42
2019-02-06T04:20:33.374Z,81.30
2019-02-06T04:23:05.881Z,95.50
2019-02-06T04:25:40.115Z,78.17
2019-02-06T04:28:12.943Z,78.52
2019-02-06T04:30:45.531Z,79.65
2019-02-06T04:33:18.388Z,78.00
2019-02-06T04:35:50.990Z,77.17
2019-02-06T04:38:24.371Z,77.80
2019-02-06T04:40:56.740Z,75.08
2019-02-06T04:43:29.302Z,72.90
2019-02-06T04:46:02.550Z,74.82
2019-02-06T04:48:35.816Z,75.37
2019-02-06T04:51:08.792Z,77.82
2019-02-06T04:53:41.702Z,75.92
2019-02-06T04:56:14.212Z,73.95
2019-02-06T04:58:47.966Z,74.90
2019-02-06T05:01:21.206Z,75.97
2019-02-06T05:03:53.921Z,73.60
2019-02-06T05:06:27.207Z,76.65
2019-02-06T05:09:00.183Z,69.45
2019-02-06T05:11:34.827Z,71.17
2019-02-06T05:14:07.840Z,71.85
2019-02-06T05:16:53.291Z,67.55
2019-02-06T05:19:25.785Z,66.35
2019-02-06T05:21:59.266Z,68.80
2019-02-06T05:24:31.807Z,69.90
2019-02-06T05:27:04.521Z,70.30
2019-02-06T05:29:37.327Z,70.08
2019-02-06T05:32:10.116Z,68.67
2019-02-06T05:34:43.761Z,64.92
2019-02-06T05:37:16.736Z,69.10
2019-02-06T05:39:49.052Z,68.35
2019-02-06T05:42:21.729Z,69.58
2019-02-06T05:44:54.053Z,66.95
2019-02-06T05:47:26.910Z,69.82
2019-02-06T05:50:00.097Z,66.02
2019-02-06T05:52:33.000Z,66.50
2019-02-06T05:55:06.538Z,66.35
2019-02-06T05:57:39.545Z,65.28
2019-02-06T06:00:14.571Z,68.45
2019-02-06T06:02:46.751Z,67.78
2019-02-06T06:05:19.682Z,66.33
2019-02-06T06:07:52.076Z,65.62
2019-02-06T06:10:24.743Z,63.00
2019-02-06T06:12:56.942Z,66.87
2019-02-06T06:15:30.034Z,65.05
2019-02-06T06:18:02.502Z,65.08
2019-02-06T06:20:34.936Z,65.00
2019-02-06T06:23:07.163Z,63.73
2019-02-06T06:25:39.840Z,65.80
2019-02-06T06:28:12.287Z,65.87
2019-02-06T06:30:47.209Z,65.52
2019-02-06T06:33:18.665Z,62.00
2019-02-06T06:35:50.909Z,61.25
2019-02-06T06:38:23.797Z,63.28
2019-02-06T06:40:55.985Z,63.40
2019-02-06T06:43:28.749Z,64.27
2019-02-06T06:46:01.031Z,62.13
2019-02-06T06:48:34.090Z,63.10
2019-02-06T06:51:09.508Z,65.03
2019-02-06T06:53:41.985Z,63.17
2019-02-06T06:56:15.194Z,63.40
2019-02-06T06:58:47.997Z,64.03
2019-02-06T07:01:20.591Z,63.58
2019-02-06T07:03:52.942Z,59.85
2019-02-06T07:06:25.359Z,58.13
2019-02-06T07:08:57.864Z,61.50
2019-02-06T07:11:30.950Z,59.18
2019-02-06T07:14:03.681Z,58.45
2019-02-06T07:16:36.043Z,58.60
2019-02-06T07:19:08.768Z,57.95
2019-02-06T07:21:41.719Z,59.55
2019-02-06T07:24:15.220Z,57.80
2019-02-06T07:26:47.789Z,60.33
2019-02-06T07:29:20.201Z,60.98
2019-02-06T07:31:52.688Z,59.83
2019-02-06T07:34:25.479Z,58.73
2019-02-06T07:36:59.996Z,58.63
2019-02-06T07:39:33.138Z,59.23
2019-02-06T07:42:18.010Z,59.38
2019-02-06T07:44:50.439Z,58.85
2019-02-06T07:47:22.771Z,59.65
2019-02-06T07:49:55.110Z,58.38
2019-02-06T07:52:27.481Z,58.63
2019-02-06T07:55:00.197Z,56.20
2019-02-06T07:57:32.536Z,55.75
2019-02-06T08:00:06.443Z,57.50
2019-02-06T08:02:39.488Z,55.80
2019-02-06T08:05:14.089Z,62.00
2019-02-06T08:07:46.361Z,58.45
2019-02-06T08:10:21.612Z,58.92
2019-02-06T08:12:54.279Z,57.90
2019-02-06T08:15:27.474Z,54.10
2019-02-06T08:17:59.996Z,55.38
2019-02-06T08:20:33.125Z,55.50
2019-02-06T08:23:05.472Z,54.80
2019-02-06T08:25:37.837Z,55.03
2019-02-06T08:28:11.383Z,54.48
2019-02-06T08:30:44.271Z,56.80
2019-02-06T08:33:16.888Z,58.02
2019-02-06T08:35:49.109Z,55.80
2019-02-06T08:38:21.404Z,57.20
2019-02-06T08:40:53.856Z,55.52
2019-02-06T08:43:26.311Z,54.80
2019-02-06T08:45:59.554Z,55.40
2019-02-06T08:48:32.078Z,54.77
2019-02-06T08:51:05.680Z,56.55
2019-02-06T08:53:38.263Z,57.00
2019-02-06T08:56:10.652Z,54.83
2019-02-06T08:58:43.470Z,55.70
2019-02-06T09:01:15.954Z,57.17
2019-02-06T09:03:48.496Z,57.40
2019-02-06T09:06:20.894Z,56.88
2019-02-06T09:08:59.910Z,59.53
2019-02-06T09:11:27.195Z,58.50
2019-02-06T09:14:00.465Z,61.00
2019-02-06T09:16:33.459Z,62.85
2019-02-06T09:19:05.929Z,63.68
2019-02-06T09:21:38.920Z,62.38
2019-02-06T09:24:11.676Z,63.92
2019-02-06T09:26:44.123Z,61.48
2019-02-06T09:29:19.563Z,61.18
2019-02-06T09:31:51.810Z,61.92
2019-02-06T09:34:24.454Z,61.35
2019-02-06T09:36:56.641Z,63.28
2019-02-06T09:39:29.171Z,60.65
2019-02-06T09:42:01.621Z,60.17
2019-02-06T09:44:34.106Z,58.80
2019-02-06T09:47:06.500Z,61.10
2019-02-06T09:49:41.600Z,61.70
2019-02-06T09:52:13.029Z,61.90
2019-02-06T09:54:45.825Z,62.43
2019-02-06T09:57:18.644Z,61.95
2019-02-06T09:59:50.744Z,61.40
2019-02-06T10:02:23.305Z,61.45
2019-02-06T10:04:57.226Z,65.05
2019-02-06T10:07:29.959Z,61.02
2019-02-06T10:10:03.669Z,63.92
2019-02-06T10:12:36.212Z,63.23
2019-02-06T10:15:11.129Z,62.03
2019-02-06T10:17:43.930Z,61.18
2019-02-06T10:20:18.639Z,61.23
2019-02-06T10:22:51.258Z,61.73
2019-02-06T10:25:23.850Z,60.55
2019-02-06T10:27:56.328Z,64.03
2019-02-06T10:30:31.704Z,65.55
2019-02-06T10:33:05.499Z,66.07
2019-02-06T10:35:38.159Z,71.67
2019-02-06T10:38:10.928Z,73.90
2019-02-06T10:40:44.649Z,77.30
2019-02-06T10:43:17.370Z,81.02
2019-02-06T10:45:49.819Z,78.40
2019-02-06T10:48:22.931Z,78.72
2019-02-06T10:50:58.228Z,80.35
2019-02-06T10:53:29.860Z,80.30
2019-02-06T10:56:02.509Z,79.00
2019-02-06T10:58:35.067Z,78.85
2019-02-06T11:01:08.187Z,85.70
2019-02-06T11:03:40.752Z,88.58
2019-02-06T11:06:13.373Z,86.95
2019-02-06T11:08:46.272Z,94.85
2019-02-06T11:11:18.633Z,87.22
2019-02-06T11:13:51.208Z,84.95
2019-02-06T11:16:23.635Z,83.70
2019-02-06T11:18:56.176Z,84.22
2019-02-06T11:21:28.651Z,81.05
2019-02-06T11:24:01.440Z,79.77
2019-02-06T11:26:34.153Z,87.40
2019-02-06T11:29:07.498Z,86.75
2019-02-06T11:31:41.104Z,86.63
2019-02-06T11:34:14.541Z,85.83
2019-02-06T11:36:46.733Z,77.92
2019-02-06T11:39:21.153Z,75.05
2019-02-06T11:41:54.038Z,78.78
2019-02-06T11:44:26.853Z,75.35
2019-02-06T11:46:59.721Z,73.57
2019-02-06T11:49:34.143Z,81.42
2019-02-06T11:52:07.225Z,78.15
2019-02-06T11:54:39.724Z,80.80
2019-02-06T11:57:13.816Z,79.25
2019-02-06T11:59:46.028Z,84.37
2019-02-06T12:02:19.981Z,94.42
2019-02-06T12:04:52.193Z,105.85
2019-02-06T12:07:24.800Z,148.60
2019-02-06T12:09:57.161Z,133.78
2019-02-06T12:12:29.889Z,138.22
2019-02-06T12:15:02.236Z,126.62
2019-02-06T12:17:34.931Z,114.70
2019-02-06T12:20:09.680Z,108.22
2019-02-06T12:22:42.125Z,110.28
2019-02-06T12:25:16.701Z,117.28
2019-02-06T12:27:50.560Z,129.63
2019-02-06T12:30:25.589Z,129.27
2019-02-06T12:32:57.955Z,133.30
2019-02-06T12:35:30.437Z,122.65
2019-02-06T12:38:03.600Z,116.82
2019-02-06T12:40:36.488Z,137.52
2019-02-06T12:43:10.489Z,128.87
2019-02-06T12:45:43.099Z,128.68
2019-02-06T12:48:15.983Z,121.57
2019-02-06T12:50:49.083Z,124.15
2019-02-06T12:53:22.121Z,122.75
2019-02-06T12:55:54.677Z,125.35
2019-02-06T12:58:27.483Z,128.12
2019-02-06T13:00:59.729Z,127.95
2019-02-06T13:03:32.038Z,123.20
2019-02-06T13:06:04.434Z,120.65
2019-02-06T13:08:36.809Z,118.95
2019-02-06T13:11:09.353Z,113.03
2019-02-06T13:13:45.041Z,113.65
2019-02-06T13:16:15.668Z,114.10
2019-02-06T13:18:47.919Z,118.57
2019-02-06T13:21:20.480Z,114.77
2019-02-06T13:23:52.915Z,131.50
2019-02-06T13:26:25.418Z,137.82
2019-02-06T13:28:58.143Z,127.38
2019-02-06T13:31:30.452Z,133.35
2019-02-06T13:34:03.276Z,133.05
2019-02-06T13:36:35.578Z,128.70
2019-02-06T13:39:10.159Z,122.58
2019-02-06T13:41:42.729Z,120.85
2019-02-06T13:44:15.352Z,133.67
2019-02-06T13:46:53.337Z,136.88
2019-02-06T13:49:21.308Z,130.75
2019-02-06T13:51:54.077Z,125.55
2019-02-06T13:54:26.423Z,127.12
2019-02-06T13:56:59.241Z,125.97
2019-02-06T13:59:32.013Z,120.62
2019-02-06T14:02:04.660Z,122.05
2019-02-06T14:04:36.997Z,118.85
2019-02-06T14:07:09.728Z,121.17
2019-02-06T14:09:42.356Z,119.90
2019-02-06T14:12:14.832Z,117.65
2019-02-06T14:14:47.342Z,119.20
2019-02-06T14:17:20.148Z,119.30
2019-02-06T14:19:52.313Z,113.55
2019-02-06T14:22:24.931Z,114.35
2019-02-06T14:24:57.541Z,114.10
2019-02-06T14:27:32.328Z,107.07
2019-02-06T14:30:07.792Z,107.00
2019-02-06T14:32:43.226Z,119.35
2019-02-06T14:35:18.623Z,127.15
2019-02-06T14:37:53.358Z,115.92
2019-02-06T14:40:28.950Z,113.03
2019-02-06T14:43:04.043Z,110.25
2019-02-06T14:45:39.279Z,114.60
2019-02-06T14:48:17.580Z,113.35
2019-02-06T14:50:51.068Z,118.53
2019-02-06T14:53:26.238Z,115.62
2019-02-06T14:56:01.843Z,117.17
2019-02-06T14:58:37.032Z,117.85
2019-02-06T15:01:12.819Z,119.35
2019-02-06T15:03:48.115Z,122.15
2019-02-06T15:06:24.125Z,120.42
2019-02-06T15:08:59.007Z,123.33
2019-02-06T15:11:34.264Z,124.05
2019-02-06T15:14:09.478Z,123.72
2019-02-06T15:16:44.165Z,167.60
2019-02-06T15:19:18.876Z,131.37
2019-02-06T15:21:54.338Z,121.45
2019-02-06T15:24:29.299Z,121.53
2019-02-06T15:27:04.655Z,116.25
2019-02-06T15:29:39.896Z,112.32
2019-02-06T15:32:15.386Z,114.77
2019-02-06T15:34:49.984Z,110.68
2019-02-06T15:37:24.775Z,109.22
2019-02-06T15:39:59.873Z,109.90
2019-02-06T15:42:35.155Z,106.63
2019-02-06T15:45:10.658Z,106.27
2019-02-06T15:47:45.800Z,107.97
2019-02-06T15:50:26.732Z,108.67
2019-02-06T15:52:56.538Z,107.87
2019-02-06T15:55:31.328Z,110.37
2019-02-06T15:58:06.813Z,109.60
2019-02-06T16:00:42.487Z,109.55
2019-02-06T16:03:17.765Z,108.57
2019-02-06T16:05:54.438Z,105.85
2019-02-06T16:08:29.547Z,111.75
2019-02-06T16:11:04.064Z,110.28
2019-02-06T16:13:39.836Z,110.20
2019-02-06T16:16:14.902Z,111.85
2019-02-06T16:18:49.985Z,114.40
2019-02-06T16:21:24.537Z,122.67
2019-02-06T16:23:59.487Z,122.65
2019-02-06T16:26:34.227Z,108.90
2019-02-06T16:29:09.741Z,106.30
2019-02-06T16:31:44.803Z,103.00
2019-02-06T16:34:30.533Z,99.80
2019-02-06T16:37:05.938Z,95.53
2019-02-06T16:39:41.487Z,96.70
2019-02-06T16:42:16.871Z,98.90
2019-02-06T16:44:51.486Z,102.22
2019-02-06T16:47:26.348Z,101.97
2019-02-06T16:50:01.654Z,97.33
2019-02-06T16:52:38.078Z,98.10
2019-02-06T16:55:13.414Z,101.33
2019-02-06T16:57:48.002Z,101.22
2019-02-06T17:00:23.088Z,97.95
2019-02-06T17:02:58.298Z,96.17
2019-02-06T17:05:33.540Z,97.97
2019-02-06T17:08:08.900Z,93.50
2019-02-06T17:10:43.559Z,114.95
2019-02-06T17:13:19.802Z,114.95
2019-02-06T17:15:54.872Z,99.72
2019-02-06T17:18:29.503Z,95.25
2019-02-06T17:21:05.252Z,97.82
2019-02-06T17:23:41.243Z,97.82
2019-02-06T17:26:16.201Z,98.70
2019-02-06T17:28:51.388Z,99.47
2019-02-06T17:31:37.335Z,96.12
2019-02-06T17:34:12.158Z,89.50
2019-02-06T17:36:47.433Z,94.45
2019-02-06T17:39:24.143Z,91.70
2019-02-06T17:41:58.625Z,90.72
2019-02-06T17:44:33.712Z,89.90
2019-02-06T17:47:26.831Z,89.67
2019-02-06T17:50:01.497Z,82.40
2019-02-06T17:52:36.641Z,82.47
2019-02-06T17:55:11.487Z,84.58
2019-02-06T17:57:44.393Z,86.28
2019-02-06T18:00:19.495Z,85.57
2019-02-06T18:02:51.848Z,83.35
2019-02-06T18:05:24.962Z,84.28
2019-02-06T18:07:57.265Z,78.30
2019-02-06T18:10:29.724Z,356.02
2019-02-06T18:13:01.963Z,257.52
2019-02-06T18:15:34.507Z,73.00
2019-02-06T18:18:08.111Z,71.00
2019-02-06T18:20:41.666Z,69.40
2019-02-06T18:23:14.007Z,72.15
2019-02-06T18:25:46.298Z,78.85
2019-02-06T18:28:18.652Z,79.90
2019-02-06T18:30:51.225Z,78.50
2019-02-06T18:33:24.031Z,77.58
2019-02-06T18:35:56.152Z,79.87
2019-02-06T18:38:28.505Z,78.10
2019-02-06T18:41:00.706Z,79.67
2019-02-06T18:43:33.188Z,79.03
2019-02-06T18:46:05.621Z,77.78
2019-02-06T18:48:38.881Z,79.60
2019-02-06T18:51:11.279Z,79.30
2019-02-06T18:53:44.711Z,78.22
2019-02-06T18:56:17.228Z,75.92
2019-02-06T18:58:49.869Z,79.03
2019-02-06T19:01:22.421Z,86.78
2019-02-06T19:03:54.977Z,88.05
2019-02-06T19:06:27.474Z,88.72
2019-02-06T19:08:59.871Z,82.92
2019-02-06T19:11:33.110Z,76.85
2019-02-06T19:14:05.934Z,77.92
2019-02-06T19:16:38.390Z,80.38
2019-02-06T19:19:10.740Z,76.40
2019-02-06T19:21:43.279Z,75.28
2019-02-06T19:24:17.745Z,78.20
2019-02-06T19:26:49.468Z,77.00
2019-02-06T19:29:21.813Z,73.55
2019-02-06T19:31:54.197Z,78.90
2019-02-06T19:34:26.894Z,77.37
2019-02-06T19:36:59.436Z,74.10
2019-02-06T19:39:31.791Z,75.45
2019-02-06T19:42:04.204Z,73.33
2019-02-06T19:44:36.543Z,75.72
2019-02-06T19:47:08.922Z,75.40
2019-02-06T19:49:41.185Z,75.35
2019-02-06T19:52:14.058Z,75.35
2019-02-06T19:54:46.902Z,72.87
2019-02-06T19:57:19.837Z,71.77
2019-02-06T19:59:51.935Z,73.97
2019-02-06T20:02:24.295Z,72.47
2019-02-06T20:04:56.624Z,72.92
2019-02-06T20:07:29.013Z,69.70
2019-02-06T20:10:01.753Z,71.22
2019-02-06T20:12:34.737Z,69.53
2019-02-06T20:15:09.672Z,69.53
2019-02-06T20:17:42.417Z,72.87
2019-02-06T20:20:17.491Z,71.87
2019-02-06T20:22:49.864Z,72.00
2019-02-06T20:25:22.814Z,74.55
2019-02-06T20:27:56.039Z,71.35
2019-02-06T20:30:30.630Z,71.35
2019-02-06T20:33:04.285Z,67.50
2019-02-06T20:35:37.550Z,69.82
2019-02-06T20:38:10.312Z,72.15
2019-02-06T20:40:44.941Z,72.17
2019-02-06T20:43:22.234Z,72.70
2019-02-06T20:45:51.518Z,71.77
2019-02-06T20:48:24.495Z,74.37
2019-02-06T20:50:56.895Z,74.65
2019-02-06T20:53:29.464Z,76.12
2019-02-06T20:56:02.120Z,73.07
2019-02-06T20:58:34.746Z,70.67
2019-02-06T21:01:07.459Z,74.40
2019-02-06T21:03:39.812Z,74.92
2019-02-06T21:06:12.132Z,73.87
2019-02-06T21:08:44.365Z,73.83
2019-02-06T21:11:16.637Z,72.78
2019-02-06T21:13:49.339Z,72.10
2019-02-06T21:16:22.222Z,70.37
2019-02-06T21:18:54.505Z,69.47
2019-02-06T21:21:26.816Z,73.65
2019-02-06T21:23:59.606Z,74.32
2019-02-06T21:26:32.770Z,78.15
2019-02-06T21:29:05.391Z,80.50
2019-02-06T21:31:37.848Z,79.45
2019-02-06T21:34:10.636Z,78.60
2019-02-06T21:36:43.361Z,75.72
2019-02-06T21:39:15.534Z,81.12
2019-02-06T21:41:48.670Z,76.80
2019-02-06T21:44:21.110Z,77.97
2019-02-06T21:46:53.827Z,78.30
2019-02-06T21:49:26.534Z,81.78
2019-02-06T21:51:58.971Z,80.20
2019-02-06T21:54:31.774Z,83.40
2019-02-06T21:57:04.062Z,85.05
2019-02-06T21:59:36.355Z,77.90
2019-02-06T22:02:08.980Z,81.92
2019-02-06T22:04:41.273Z,78.92
2019-02-06T22:07:13.899Z,83.25
2019-02-06T22:09:45.988Z,81.42
2019-02-06T22:12:18.447Z,80.10
2019-02-06T22:14:50.837Z,82.75
2019-02-06T22:17:23.328Z,78.35
2019-02-06T22:19:55.616Z,79.92
2019-02-06T22:22:27.998Z,78.10
2019-02-06T22:25:00.435Z,77.90
2019-02-06T22:27:33.016Z,80.07
2019-02-06T22:30:07.182Z,79.50
2019-02-06T22:32:39.685Z,82.50
2019-02-06T22:35:12.856Z,81.70
2019-02-06T22:37:45.272Z,80.95
2019-02-06T22:40:20.099Z,77.22
2019-02-06T22:42:52.508Z,80.45
2019-02-06T22:45:27.404Z,79.95
2019-02-06T22:47:59.962Z,82.00
2019-02-06T22:50:33.117Z,81.97
2019-02-06T22:53:05.450Z,81.57
2019-02-06T22:55:38.843Z,85.40
2019-02-06T22:58:11.352Z,84.20
2019-02-06T23:00:47.893Z,84.72
2019-02-06T23:03:24.254Z,84.83
2019-02-06T23:05:56.741Z,81.55
2019-02-06T23:08:29.343Z,83.10
2019-02-06T23:11:02.259Z,79.60
2019-02-06T23:13:34.580Z,82.10
2019-02-06T23:16:07.453Z,84.25
2019-02-06T23:18:40.019Z,84.55
2019-02-06T23:21:12.844Z,85.92
2019-02-06T23:23:45.156Z,81.87
2019-02-06T23:26:17.536Z,82.12
2019-02-06T23:28:49.960Z,82.30
2019-02-06T23:31:22.608Z,84.32
2019-02-06T23:33:55.755Z,87.53
2019-02-06T23:36:28.123Z,89.85
2019-02-06T23:39:00.474Z,87.30
2019-02-06T23:41:34.008Z,90.32
2019-02-06T23:44:06.512Z,88.25
2019-02-06T23:46:39.350Z,83.75
2019-02-06T23:49:12.487Z,83.35
2019-02-06T23:51:45.021Z,84.17
2019-02-06T23:54:18.160Z,85.87
2019-02-06T23:56:50.901Z,96.45
2019-02-06T23:59:23.386Z,98.92
